Time;durP1;ratioP1;P1;durP2;ratioP2;P2;SDS_P1;SDS_P2;PMS_P1;PMS_P2;Temp;Humidity;BMP_temperature;BMP_pressure;BME280_temperature;BME280_humidity;BME280_pressure;Samples;Min_cycle;Max_cycle;Signal;HPM_P1;HPM_P2
2023/03/11 00:02:12;;;;;;;8.45;1.50;;;;;;;;;;6306697;22;20020;-79
2023/03/11 00:04:38;;;;;;;12.52;1.50;;;;;;;;;;6304357;22;20024;-80
2023/03/11 00:07:05;;;;;;;8.48;1.30;;;;;;;;;;6307030;22;20038;-80
2023/03/11 00:09:32;;;;;;;7.32;1.17;;;;;;;;;;6279089;22;20020;-80
2023/03/11 00:11:59;;;;;;;8.93;1.70;;;;;;;;;;6306005;22;20051;-79
2023/03/11 00:14:25;;;;;;;6.78;1.65;;;;;;;;;;6304593;22;20302;-80
2023/03/11 00:16:52;;;;;;;9.95;1.67;;;;;;;;;;6305987;22;20347;-81
2023/03/11 00:19:18;;;;;;;7.95;1.23;;;;;;;;;;6307543;22;20059;-80
2023/03/11 00:21:44;;;;;;;8.80;1.60;;;;;;;;;;6279739;22;20806;-80
2023/03/11 00:24:11;;;;;;;6.97;1.10;;;;;;;;;;6304494;22;20023;-79
2023/03/11 00:26:37;;;;;;;8.57;1.40;;;;;;;;;;6307097;22;20060;-79
2023/03/11 00:29:03;;;;;;;5.90;1.20;;;;;;;;;;6306692;22;20115;-80
2023/03/11 00:31:30;;;;;;;6.00;1.30;;;;;;;;;;6306861;22;20070;-80
2023/03/11 00:33:56;;;;;;;7.65;1.70;;;;;;;;;;6305174;22;20059;-81
2023/03/11 00:36:27;;;;;;;12.18;1.50;;;;;;;;;;6306102;22;20019;-81
2023/03/11 00:38:53;;;;;;;6.75;1.30;;;;;;;;;;6306429;22;20032;-81
2023/03/11 00:41:20;;;;;;;4.07;1.00;;;;;;;;;;6306985;22;20031;-79
2023/03/11 00:43:46;;;;;;;5.15;1.20;;;;;;;;;;6304752;22;20035;-79
2023/03/11 00:46:12;;;;;;;4.70;1.08;;;;;;;;;;6279918;22;20030;-80
2023/03/11 00:48:39;;;;;;;8.65;1.25;;;;;;;;;;6307752;22;20056;-81
2023/03/11 00:51:06;;;;;;;4.35;1.00;;;;;;;;;;6308914;22;20019;-82
2023/03/11 00:53:32;;;;;;;8.65;1.13;;;;;;;;;;6306911;22;20034;-79
2023/03/11 00:56:04;;;;;;;5.78;0.95;;;;;;;;;;6308865;22;20389;-80
2023/03/11 00:58:32;;;;;;;5.40;1.23;;;;;;;;;;6281272;22;20100;-80
2023/03/11 01:00:58;;;;;;;3.33;1.00;;;;;;;;;;6307825;22;20030;-81
2023/03/11 01:03:24;;;;;;;5.95;1.20;;;;;;;;;;6307076;22;20051;-81
2023/03/11 01:05:51;;;;;;;7.80;1.02;;;;;;;;;;6308403;22;20023;-80
2023/03/11 01:08:17;;;;;;;4.28;1.00;;;;;;;;;;6309691;22;20031;-80
2023/03/11 01:10:44;;;;;;;4.18;0.95;;;;;;;;;;6281571;22;20024;-80
2023/03/11 01:13:10;;;;;;;6.70;1.17;;;;;;;;;;6309042;22;20012;-81
2023/03/11 01:15:36;;;;;;;7.25;1.30;;;;;;;;;;6308941;22;20288;-81
2023/03/11 01:18:03;;;;;;;9.13;1.13;;;;;;;;;;6283646;22;20028;-80
2023/03/11 01:20:32;;;;;;;9.57;1.00;;;;;;;;;;6312770;22;20016;-79
2023/03/11 01:22:59;;;;;;;7.53;1.00;;;;;;;;;;6308943;22;20019;-81
2023/03/11 01:25:25;;;;;;;2.97;1.00;;;;;;;;;;6309333;22;20027;-79
2023/03/11 01:27:51;;;;;;;5.90;1.00;;;;;;;;;;6310467;22;20024;-79
2023/03/11 01:30:20;;;;;;;6.82;1.05;;;;;;;;;;6310840;22;20098;-80
2023/03/11 01:32:46;;;;;;;5.22;0.93;;;;;;;;;;6282594;22;20042;-80
2023/03/11 01:35:14;;;;;;;5.15;1.10;;;;;;;;;;6309555;22;20028;-79
2023/03/11 01:37:40;;;;;;;4.65;1.10;;;;;;;;;;6281419;22;20024;-81
2023/03/11 01:40:10;;;;;;;6.97;1.00;;;;;;;;;;6308427;22;20484;-79
2023/03/11 01:42:36;;;;;;;4.38;1.13;;;;;;;;;;6310635;22;20027;-81
2023/03/11 01:45:18;;;;;;;5.60;1.15;;;;;;;;;;6309509;22;20838;-81
2023/03/11 01:47:44;;;;;;;5.32;1.48;;;;;;;;;;6310626;22;20071;-80
2023/03/11 01:50:11;;;;;;;6.07;1.30;;;;;;;;;;6310348;22;20091;-81
2023/03/11 01:52:38;;;;;;;4.22;1.10;;;;;;;;;;6308202;22;20008;-80
2023/03/11 01:55:06;;;;;;;3.70;1.05;;;;;;;;;;6308434;22;20114;-81
2023/03/11 01:57:32;;;;;;;4.85;1.02;;;;;;;;;;6312586;22;20038;-82
2023/03/11 01:59:59;;;;;;;5.60;1.10;;;;;;;;;;6310896;22;20076;-80
2023/03/11 02:02:28;;;;;;;5.85;0.98;;;;;;;;;;6284650;22;20030;-79
2023/03/11 02:04:55;;;;;;;3.17;1.00;;;;;;;;;;6308815;22;20545;-81
2023/03/11 02:07:22;;;;;;;4.72;0.90;;;;;;;;;;6311113;22;21228;-80
2023/03/11 02:09:48;;;;;;;4.82;0.90;;;;;;;;;;6309397;22;20481;-80
2023/03/11 02:12:14;;;;;;;6.07;1.00;;;;;;;;;;6309781;22;20051;-79
2023/03/11 02:14:45;;;;;;;7.45;1.02;;;;;;;;;;6306313;22;20102;-80
2023/03/11 02:17:11;;;;;;;5.05;1.10;;;;;;;;;;6309455;22;20012;-80
2023/03/11 02:19:43;;;;;;;3.63;0.95;;;;;;;;;;6310648;22;21292;-81
2023/03/11 02:22:10;;;;;;;9.95;1.20;;;;;;;;;;6309483;22;20042;-81
2023/03/11 02:24:45;;;;;;;5.28;1.13;;;;;;;;;;6308669;22;20007;-81
2023/03/11 02:27:13;;;;;;;11.90;1.35;;;;;;;;;;6309766;22;20019;-82
2023/03/11 02:29:40;;;;;;;5.35;1.10;;;;;;;;;;6311549;22;20024;-80
2023/03/11 02:32:08;;;;;;;9.07;1.23;;;;;;;;;;6309576;22;20015;-81
2023/03/11 02:34:36;;;;;;;5.72;0.88;;;;;;;;;;6281477;22;20059;-80
2023/03/11 02:37:03;;;;;;;5.47;1.40;;;;;;;;;;6281604;22;20026;-80
2023/03/11 02:39:31;;;;;;;3.55;0.95;;;;;;;;;;6283307;22;20444;-79
2023/03/11 02:41:58;;;;;;;4.47;0.90;;;;;;;;;;6309925;22;20086;-80
2023/03/11 02:44:25;;;;;;;8.30;1.73;;;;;;;;;;6280894;22;20024;-80
2023/03/11 02:46:51;;;;;;;5.22;1.00;;;;;;;;;;6309479;22;20814;-81
2023/03/11 02:49:19;;;;;;;4.53;0.90;;;;;;;;;;6281927;22;20099;-80
2023/03/11 02:51:45;;;;;;;4.53;0.95;;;;;;;;;;6309478;22;20020;-79
2023/03/11 02:54:12;;;;;;;4.65;1.10;;;;;;;;;;6307798;22;20016;-80
2023/03/11 02:56:38;;;;;;;5.35;1.00;;;;;;;;;;6283415;22;20023;-81
2023/03/11 02:59:04;;;;;;;7.70;1.10;;;;;;;;;;6309218;22;20873;-82
2023/03/11 03:01:31;;;;;;;3.08;0.77;;;;;;;;;;6309237;22;20107;-81
2023/03/11 03:03:57;;;;;;;5.72;1.00;;;;;;;;;;6308277;22;20020;-79
2023/03/11 03:06:24;;;;;;;8.70;1.27;;;;;;;;;;6307985;22;20050;-81
2023/03/11 03:08:50;;;;;;;3.30;1.08;;;;;;;;;;6282456;22;20024;-80
2023/03/11 03:11:16;;;;;;;4.03;0.90;;;;;;;;;;6281392;22;20759;-79
2023/03/11 03:13:42;;;;;;;4.15;1.10;;;;;;;;;;6306616;22;20024;-81
2023/03/11 03:16:09;;;;;;;4.63;0.88;;;;;;;;;;6309202;22;20047;-80
2023/03/11 03:18:35;;;;;;;7.00;1.30;;;;;;;;;;6308952;22;20867;-81
2023/03/11 03:21:02;;;;;;;6.70;1.30;;;;;;;;;;6310061;22;20047;-81
2023/03/11 03:23:28;;;;;;;6.45;1.10;;;;;;;;;;6278840;22;20067;-80
2023/03/11 03:25:54;;;;;;;5.45;1.42;;;;;;;;;;6306319;22;20372;-79
2023/03/11 03:28:21;;;;;;;4.95;0.90;;;;;;;;;;6308374;22;20024;-81
2023/03/11 03:30:47;;;;;;;7.40;1.10;;;;;;;;;;6306255;22;20004;-81
2023/03/11 03:33:13;;;;;;;4.47;1.02;;;;;;;;;;6306317;22;20795;-81
2023/03/11 03:35:41;;;;;;;7.03;1.10;;;;;;;;;;6306166;22;20031;-82
2023/03/11 03:38:07;;;;;;;3.92;0.95;;;;;;;;;;6306558;22;20875;-81
2023/03/11 03:40:34;;;;;;;4.18;0.90;;;;;;;;;;6280339;22;20023;-80
2023/03/11 03:43:00;;;;;;;5.10;0.93;;;;;;;;;;6306557;22;20027;-80
2023/03/11 03:45:27;;;;;;;2.90;1.00;;;;;;;;;;6307237;22;20058;-80
2023/03/11 03:47:53;;;;;;;3.75;0.90;;;;;;;;;;6308253;22;20020;-79
2023/03/11 03:50:19;;;;;;;2.75;0.88;;;;;;;;;;6308605;22;20016;-79
2023/03/11 03:52:46;;;;;;;5.35;0.95;;;;;;;;;;6306464;22;20027;-80
2023/03/11 03:55:12;;;;;;;3.58;1.05;;;;;;;;;;6278637;22;20020;-81
2023/03/11 03:57:39;;;;;;;3.78;0.93;;;;;;;;;;6306293;22;20063;-81
2023/03/11 04:00:08;;;;;;;4.15;0.90;;;;;;;;;;6306514;22;20020;-80
2023/03/11 04:02:34;;;;;;;5.15;0.95;;;;;;;;;;6306723;22;20026;-79
2023/03/11 04:05:01;;;;;;;3.05;0.88;;;;;;;;;;6305332;22;20569;-81
2023/03/11 04:07:27;;;;;;;5.80;0.90;;;;;;;;;;6305627;22;20024;-80
2023/03/11 04:09:53;;;;;;;5.13;1.00;;;;;;;;;;6304991;22;20051;-80
2023/03/11 04:12:20;;;;;;;7.15;0.90;;;;;;;;;;6306015;22;20801;-80
2023/03/11 04:14:47;;;;;;;3.50;0.80;;;;;;;;;;6304289;22;20094;-81
2023/03/11 04:17:16;;;;;;;6.28;0.77;;;;;;;;;;6306089;22;20008;-81
2023/03/11 04:19:42;;;;;;;6.35;1.00;;;;;;;;;;6304709;22;20016;-80
2023/03/11 04:22:09;;;;;;;3.33;0.82;;;;;;;;;;6304752;22;20070;-81
2023/03/11 04:24:35;;;;;;;7.13;1.10;;;;;;;;;;6276996;22;20055;-80
2023/03/11 04:27:01;;;;;;;3.25;1.10;;;;;;;;;;6305887;22;20019;-80
2023/03/11 04:29:28;;;;;;;4.47;0.88;;;;;;;;;;6305263;22;20876;-79
2023/03/11 04:31:54;;;;;;;3.47;0.90;;;;;;;;;;6306276;22;20011;-80
2023/03/11 04:34:21;;;;;;;5.13;0.80;;;;;;;;;;6302934;22;20023;-79
2023/03/11 04:36:50;;;;;;;4.30;0.95;;;;;;;;;;6304267;22;20035;-80
2023/03/11 04:39:16;;;;;;;4.88;1.13;;;;;;;;;;6305693;22;20063;-79
2023/03/11 04:41:42;;;;;;;4.03;0.70;;;;;;;;;;6305484;22;20034;-79
2023/03/11 04:44:09;;;;;;;4.93;0.88;;;;;;;;;;6275226;22;20026;-80
2023/03/11 04:46:35;;;;;;;4.70;1.00;;;;;;;;;;6277083;22;20024;-79
2023/03/11 04:49:01;;;;;;;4.65;0.80;;;;;;;;;;6305492;22;20061;-80
2023/03/11 04:51:28;;;;;;;5.40;1.20;;;;;;;;;;6279165;22;20031;-81
2023/03/11 04:53:54;;;;;;;5.97;1.30;;;;;;;;;;6303915;22;20027;-81
2023/03/11 04:56:21;;;;;;;2.97;0.77;;;;;;;;;;6304863;22;20032;-79
2023/03/11 04:58:47;;;;;;;6.45;1.02;;;;;;;;;;6304706;22;20024;-80
2023/03/11 05:01:14;;;;;;;4.78;0.80;;;;;;;;;;6304354;22;20028;-79
2023/03/11 05:03:40;;;;;;;2.28;0.80;;;;;;;;;;6303823;22;20024;-81
2023/03/11 05:06:06;;;;;;;3.63;0.77;;;;;;;;;;6305117;22;20028;-81
2023/03/11 05:08:33;;;;;;;4.20;0.80;;;;;;;;;;6304920;22;20115;-80
2023/03/11 05:10:59;;;;;;;3.05;0.80;;;;;;;;;;6278007;22;20031;-79
2023/03/11 05:13:26;;;;;;;6.25;0.98;;;;;;;;;;6303469;22;20182;-79
2023/03/11 05:15:52;;;;;;;6.68;1.20;;;;;;;;;;6306284;22;20031;-79
2023/03/11 05:18:19;;;;;;;4.32;1.00;;;;;;;;;;6305614;22;20043;-78
2023/03/11 05:20:46;;;;;;;1.77;0.52;;;;;;;;;;6279320;22;20778;-81
2023/03/11 05:23:12;;;;;;;2.78;0.82;;;;;;;;;;6277558;22;20081;-79
2023/03/11 05:25:39;;;;;;;3.72;1.02;;;;;;;;;;6304041;22;20019;-79
2023/03/11 05:28:06;;;;;;;5.03;1.00;;;;;;;;;;6304383;22;20028;-81
2023/03/11 05:30:32;;;;;;;4.03;1.00;;;;;;;;;;6303579;22;20024;-79
2023/03/11 05:32:59;;;;;;;3.38;1.00;;;;;;;;;;6302664;22;20023;-80
2023/03/11 05:35:25;;;;;;;4.45;1.00;;;;;;;;;;6302473;22;20054;-80
2023/03/11 05:37:53;;;;;;;5.80;1.00;;;;;;;;;;6303594;22;20031;-80
2023/03/11 05:40:20;;;;;;;5.50;1.30;;;;;;;;;;6275546;22;20491;-80
2023/03/11 05:42:46;;;;;;;3.28;0.98;;;;;;;;;;6302999;22;20031;-80
2023/03/11 05:45:13;;;;;;;3.70;1.13;;;;;;;;;;6276727;22;20015;-80
2023/03/11 05:47:41;;;;;;;3.97;1.05;;;;;;;;;;6303794;22;20028;-80
2023/03/11 05:50:08;;;;;;;4.65;1.65;;;;;;;;;;6275607;22;20545;-80
2023/03/11 05:52:34;;;;;;;8.13;1.38;;;;;;;;;;6303416;22;20095;-79
2023/03/11 05:55:01;;;;;;;5.25;1.10;;;;;;;;;;6301856;22;20075;-80
2023/03/11 05:57:27;;;;;;;2.42;0.82;;;;;;;;;;6275278;22;20023;-80
2023/03/11 05:59:54;;;;;;;8.88;1.00;;;;;;;;;;6302353;22;20810;-80
2023/03/11 06:02:20;;;;;;;5.60;1.20;;;;;;;;;;6303056;22;20110;-81
2023/03/11 06:04:47;;;;;;;13.85;1.35;;;;;;;;;;6301781;22;20842;-80
2023/03/11 06:07:15;;;;;;;6.22;1.23;;;;;;;;;;6302821;22;20047;-80
2023/03/11 06:09:41;;;;;;;6.00;1.17;;;;;;;;;;6301753;22;20027;-79
2023/03/11 06:12:07;;;;;;;6.25;1.20;;;;;;;;;;6302384;22;20047;-79
2023/03/11 06:14:34;;;;;;;5.28;1.30;;;;;;;;;;6303766;22;20518;-80
2023/03/11 06:17:00;;;;;;;4.13;1.30;;;;;;;;;;6303168;22;20030;-81
2023/03/11 06:19:27;;;;;;;2.95;1.10;;;;;;;;;;6302575;22;20762;-83
2023/03/11 06:21:54;;;;;;;4.68;1.10;;;;;;;;;;6302505;22;20023;-80
2023/03/11 06:24:20;;;;;;;4.20;1.38;;;;;;;;;;6273255;22;20016;-80
2023/03/11 06:26:49;;;;;;;3.95;0.98;;;;;;;;;;6302676;22;20024;-80
2023/03/11 06:29:16;;;;;;;2.30;0.93;;;;;;;;;;6301396;22;20034;-81
2023/03/11 06:31:42;;;;;;;6.63;1.30;;;;;;;;;;6302884;22;20848;-79
2023/03/11 06:34:09;;;;;;;4.20;1.30;;;;;;;;;;6301506;22;20024;-80
2023/03/11 06:36:36;;;;;;;6.68;1.33;;;;;;;;;;6275938;22;20167;-80
2023/03/11 06:39:03;;;;;;;7.90;3.60;;;;;;;;;;6302718;22;20047;-80
2023/03/11 06:41:31;;;;;;;22.92;9.73;;;;;;;;;;6302276;22;20019;-80
2023/03/11 06:43:58;;;;;;;8.52;4.20;;;;;;;;;;6302513;22;20041;-81
2023/03/11 06:46:24;;;;;;;8.95;2.85;;;;;;;;;;6302428;22;20023;-81
2023/03/11 06:48:51;;;;;;;5.70;1.70;;;;;;;;;;6302435;22;20024;-80
2023/03/11 06:51:18;;;;;;;4.10;1.65;;;;;;;;;;6302239;22;20038;-82
2023/03/11 06:53:49;;;;;;;4.13;1.63;;;;;;;;;;6301204;22;20082;-81
2023/03/11 06:56:15;;;;;;;4.80;1.40;;;;;;;;;;6302532;22;20037;-80
2023/03/11 06:58:42;;;;;;;5.32;1.70;;;;;;;;;;6303647;22;20026;-79
2023/03/11 07:01:12;;;;;;;4.53;1.60;;;;;;;;;;6303582;22;20030;-79
2023/03/11 07:03:39;;;;;;;7.10;1.65;;;;;;;;;;6300826;22;20016;-81
2023/03/11 07:06:06;;;;;;;4.72;1.40;;;;;;;;;;6303030;22;20070;-81
2023/03/11 07:08:32;;;;;;;6.25;1.30;;;;;;;;;;6302734;22;20032;-81
2023/03/11 07:11:06;;;;;;;7.75;1.90;;;;;;;;;;6302451;22;20067;-80
2023/03/11 07:13:32;;;;;;;3.58;1.30;;;;;;;;;;6301313;22;20810;-80
2023/03/11 07:16:00;;;;;;;6.75;1.40;;;;;;;;;;6302825;22;20043;-80
2023/03/11 07:18:26;;;;;;;3.38;1.30;;;;;;;;;;6301723;22;20011;-82
2023/03/11 07:20:52;;;;;;;3.15;1.30;;;;;;;;;;6302004;22;20069;-81
2023/03/11 07:23:19;;;;;;;9.55;2.13;;;;;;;;;;6300582;22;20669;-80
2023/03/11 07:25:46;;;;;;;4.65;1.40;;;;;;;;;;6302153;22;20055;-80
2023/03/11 07:28:12;;;;;;;7.18;1.83;;;;;;;;;;6274225;22;20039;-81
2023/03/11 07:30:39;;;;;;;7.80;1.65;;;;;;;;;;6300760;22;20056;-80
2023/03/11 07:33:05;;;;;;;7.03;1.23;;;;;;;;;;6274597;22;20024;-80
2023/03/11 07:35:33;;;;;;;5.22;1.42;;;;;;;;;;6301051;22;20031;-80
2023/03/11 07:38:00;;;;;;;7.72;2.10;;;;;;;;;;6303985;22;20024;-79
2023/03/11 07:40:26;;;;;;;9.23;1.92;;;;;;;;;;6303537;22;20024;-81
2023/03/11 07:42:53;;;;;;;6.03;1.80;;;;;;;;;;6299365;22;20284;-80
2023/03/11 07:45:19;;;;;;;6.90;1.75;;;;;;;;;;6298913;22;21430;-81
2023/03/11 07:47:45;;;;;;;6.88;1.60;;;;;;;;;;6301954;22;20024;-80
2023/03/11 07:50:12;;;;;;;4.32;1.38;;;;;;;;;;6299611;22;20973;-81
2023/03/11 07:52:38;;;;;;;5.30;1.40;;;;;;;;;;6300759;22;20055;-81
2023/03/11 07:55:05;;;;;;;5.90;1.90;;;;;;;;;;6300301;22;20664;-80
2023/03/11 07:57:31;;;;;;;5.43;1.92;;;;;;;;;;6301249;22;20070;-81
2023/03/11 07:59:57;;;;;;;9.15;2.13;;;;;;;;;;6302122;22;20019;-80
2023/03/11 08:02:23;;;;;;;4.38;1.75;;;;;;;;;;6300971;22;20027;-81
2023/03/11 08:04:50;;;;;;;5.90;2.05;;;;;;;;;;6302320;22;20030;-80
2023/03/11 08:07:16;;;;;;;7.72;2.70;;;;;;;;;;6301438;22;20047;-81
2023/03/11 08:09:43;;;;;;;4.90;1.85;;;;;;;;;;6302063;22;20039;-81
2023/03/11 08:12:11;;;;;;;7.47;1.88;;;;;;;;;;6300773;22;20022;-79
2023/03/11 08:14:38;;;;;;;6.88;1.73;;;;;;;;;;6300937;22;20869;-81
2023/03/11 08:17:05;;;;;;;5.47;2.05;;;;;;;;;;6273556;22;20034;-81
2023/03/11 08:19:31;;;;;;;8.05;1.70;;;;;;;;;;6302524;22;20023;-80
2023/03/11 08:21:59;;;;;;;7.03;2.00;;;;;;;;;;6302396;22;20032;-81
2023/03/11 08:24:26;;;;;;;5.70;2.00;;;;;;;;;;6299769;22;20036;-80
2023/03/11 08:26:52;;;;;;;10.32;2.15;;;;;;;;;;6303483;22;20110;-79
2023/03/11 08:29:18;;;;;;;5.85;1.80;;;;;;;;;;6302547;22;20028;-79
2023/03/11 08:31:45;;;;;;;10.25;1.80;;;;;;;;;;6302548;22;20020;-80
2023/03/11 08:34:11;;;;;;;4.47;1.40;;;;;;;;;;6300917;22;20027;-81
2023/03/11 08:36:38;;;;;;;4.70;1.35;;;;;;;;;;6304507;22;20130;-79
2023/03/11 08:39:04;;;;;;;3.60;1.20;;;;;;;;;;6302028;22;20023;-81
2023/03/11 08:41:31;;;;;;;4.25;1.50;;;;;;;;;;6277039;22;20594;-81
2023/03/11 08:43:57;;;;;;;5.47;1.75;;;;;;;;;;6301887;22;20845;-81
2023/03/11 08:46:24;;;;;;;5.30;1.50;;;;;;;;;;6275315;22;20506;-81
2023/03/11 08:48:51;;;;;;;7.53;1.73;;;;;;;;;;6304768;22;20089;-79
2023/03/11 08:51:17;;;;;;;6.50;1.55;;;;;;;;;;6308180;22;20016;-82
2023/03/11 08:53:44;;;;;;;5.45;1.63;;;;;;;;;;6277070;22;20027;-81
2023/03/11 08:56:10;;;;;;;5.82;1.15;;;;;;;;;;6275009;22;20062;-82
2023/03/11 08:58:37;;;;;;;4.20;1.23;;;;;;;;;;6303870;22;20801;-83
2023/03/11 09:01:04;;;;;;;9.30;1.88;;;;;;;;;;6304278;22;20028;-79
2023/03/11 09:03:31;;;;;;;6.25;1.50;;;;;;;;;;6302718;22;20034;-81
2023/03/11 09:05:59;;;;;;;4.78;1.63;;;;;;;;;;6308106;22;20091;-82
2023/03/11 09:08:25;;;;;;;12.18;1.48;;;;;;;;;;6312016;22;20018;-81
2023/03/11 09:10:51;;;;;;;4.28;1.30;;;;;;;;;;6308899;22;20046;-81
2023/03/11 09:13:18;;;;;;;4.18;0.95;;;;;;;;;;6305481;22;20019;-80
2023/03/11 09:15:44;;;;;;;4.05;1.08;;;;;;;;;;6307482;22;20103;-81
2023/03/11 09:18:12;;;;;;;6.88;1.30;;;;;;;;;;6282049;22;20035;-82
2023/03/11 09:20:38;;;;;;;5.88;1.02;;;;;;;;;;6308033;22;20032;-79
2023/03/11 09:23:09;;;;;;;3.63;0.80;;;;;;;;;;6306725;22;20034;-82
2023/03/11 09:25:35;;;;;;;8.85;1.50;;;;;;;;;;6282513;22;20020;-82
2023/03/11 09:28:01;;;;;;;8.95;1.63;;;;;;;;;;6307767;22;20028;-80
2023/03/11 09:30:28;;;;;;;3.63;0.85;;;;;;;;;;6308309;22;20064;-80
2023/03/11 09:32:54;;;;;;;5.22;1.20;;;;;;;;;;6306903;22;20023;-81
2023/03/11 09:35:20;;;;;;;6.55;1.30;;;;;;;;;;6306622;22;20011;-80
2023/03/11 09:37:47;;;;;;;8.88;2.10;;;;;;;;;;6306803;22;20282;-80
2023/03/11 09:40:20;;;;;;;4.63;1.25;;;;;;;;;;6307432;22;20034;-80
2023/03/11 09:42:52;;;;;;;6.13;1.13;;;;;;;;;;6307676;22;20833;-80
2023/03/11 09:45:23;;;;;;;5.15;1.30;;;;;;;;;;6305656;22;20567;-80
2023/03/11 09:47:54;;;;;;;6.85;1.38;;;;;;;;;;6305488;22;20057;-79
2023/03/11 09:50:33;;;;;;;6.55;1.30;;;;;;;;;;6302258;22;20016;-81
2023/03/11 09:53:02;;;;;;;4.95;1.17;;;;;;;;;;6300738;22;20023;-78
2023/03/11 09:55:36;;;;;;;6.60;1.73;;;;;;;;;;6304873;22;20050;-79
2023/03/11 09:58:08;;;;;;;8.75;1.38;;;;;;;;;;6306194;22;20489;-79
2023/03/11 10:00:34;;;;;;;4.63;1.15;;;;;;;;;;6306533;22;20074;-78
2023/03/11 10:03:01;;;;;;;4.53;1.15;;;;;;;;;;6304225;22;20032;-79
2023/03/11 10:05:28;;;;;;;6.47;1.17;;;;;;;;;;6304417;22;20527;-78
2023/03/11 10:08:03;;;;;;;4.97;1.10;;;;;;;;;;6304503;22;20733;-79
2023/03/11 10:10:34;;;;;;;3.85;1.20;;;;;;;;;;6305515;22;20069;-78
2023/03/11 10:13:00;;;;;;;;;;;;;;;;;;6304198;22;20099;-78
2023/03/11 10:15:47;;;;;;;2.78;0.90;;;;;;;;;;6304348;22;48352;-79
2023/03/11 10:18:16;;;;;;;8.13;1.17;;;;;;;;;;6308603;22;20012;-78
2023/03/11 10:21:01;;;;;;;2.90;0.80;;;;;;;;;;6281268;22;20031;-78
2023/03/11 10:23:39;;;;;;;3.58;0.90;;;;;;;;;;6305934;22;20024;-78
2023/03/11 10:26:15;;;;;;;2.90;0.70;;;;;;;;;;6307883;22;20074;-78
2023/03/11 10:28:43;;;;;;;2.88;0.70;;;;;;;;;;6304886;22;20135;-80
2023/03/11 10:31:29;;;;;;;4.30;0.80;;;;;;;;;;6308412;22;20067;-80
2023/03/11 10:33:58;;;;;;;4.55;0.70;;;;;;;;;;6307396;22;20023;-78
2023/03/11 10:36:28;;;;;;;3.17;0.50;;;;;;;;;;6307141;22;20386;-80
2023/03/11 10:38:55;;;;;;;6.13;0.80;;;;;;;;;;6308731;22;20084;-79
2023/03/11 10:41:22;;;;;;;3.50;0.93;;;;;;;;;;6282049;22;20031;-79
2023/03/11 10:43:51;;;;;;;6.68;0.77;;;;;;;;;;6306831;22;20061;-79
2023/03/11 10:46:20;;;;;;;4.97;1.00;;;;;;;;;;6308097;22;20024;-79
2023/03/11 10:48:46;;;;;;;4.20;0.80;;;;;;;;;;6280530;22;20441;-80
2023/03/11 10:51:21;;;;;;;6.32;0.80;;;;;;;;;;6311434;22;20059;-81
2023/03/11 10:53:58;;;;;;;6.57;1.02;;;;;;;;;;6281754;22;20073;-81
2023/03/11 10:56:30;;;;;;;5.70;0.80;;;;;;;;;;6308707;22;20012;-80
2023/03/11 10:58:57;;;;;;;4.00;0.70;;;;;;;;;;6306766;22;20027;-79
2023/03/11 11:01:23;;;;;;;3.63;1.08;;;;;;;;;;6309357;22;20023;-80
2023/03/11 11:03:51;;;;;;;3.45;1.10;;;;;;;;;;6281347;22;20123;-80
2023/03/11 11:06:27;;;;;;;4.78;0.80;;;;;;;;;;6282821;22;20452;-82
2023/03/11 11:09:03;;;;;;;2.75;0.82;;;;;;;;;;6281136;22;20027;-80
2023/03/11 11:11:30;;;;;;;3.72;1.02;;;;;;;;;;6311414;22;21120;-81
2023/03/11 11:13:58;;;;;;;6.95;1.00;;;;;;;;;;6280767;22;20095;-82
2023/03/11 11:16:25;;;;;;;3.75;0.88;;;;;;;;;;6310609;22;20011;-80
2023/03/11 11:18:56;;;;;;;5.57;0.98;;;;;;;;;;6304561;22;20015;-81
2023/03/11 11:21:32;;;;;;;4.25;1.05;;;;;;;;;;6303869;22;20020;-81
2023/03/11 11:24:16;;;;;;;3.53;0.88;;;;;;;;;;6304005;22;20035;-81
2023/03/11 11:27:01;;;;;;;4.10;1.15;;;;;;;;;;6278218;22;20020;-83
2023/03/11 11:29:28;;;;;;;4.20;0.90;;;;;;;;;;6312421;22;20047;-81
2023/03/11 11:32:08;;;;;;;6.28;1.25;;;;;;;;;;6310207;22;20012;-82
2023/03/11 11:34:35;;;;;;;4.80;1.20;;;;;;;;;;6283610;22;20024;-82
2023/03/11 11:37:03;;;;;;;6.15;1.60;;;;;;;;;;6306440;22;20427;-82
2023/03/11 11:39:35;;;;;;;5.50;1.10;;;;;;;;;;6305917;22;20020;-82
2023/03/11 11:42:01;;;;;;;5.60;1.02;;;;;;;;;;6311663;22;20059;-82
2023/03/11 11:44:30;;;;;;;3.72;1.42;;;;;;;;;;6280157;22;20979;-82
2023/03/11 11:46:59;;;;;;;3.85;1.00;;;;;;;;;;6311118;22;20105;-81
2023/03/11 11:49:33;;;;;;;4.03;1.42;;;;;;;;;;6312702;22;21081;-81
2023/03/11 11:52:17;;;;;;;6.57;1.05;;;;;;;;;;6281755;22;20027;-83
2023/03/11 11:54:52;;;;;;;7.20;1.30;;;;;;;;;;6276471;22;20483;-82
2023/03/11 11:57:20;;;;;;;6.07;0.82;;;;;;;;;;6307633;22;20052;-82
2023/03/11 11:59:47;;;;;;;3.55;0.70;;;;;;;;;;6279495;22;20909;-82
2023/03/11 12:02:32;;;;;;;4.43;0.82;;;;;;;;;;6306789;22;20077;-82
2023/03/11 12:04:58;;;;;;;5.60;1.00;;;;;;;;;;6303971;22;20099;-82
2023/03/11 12:07:31;;;;;;;3.90;1.00;;;;;;;;;;6276900;22;20031;-81
2023/03/11 12:10:00;;;;;;;5.25;1.40;;;;;;;;;;6300703;22;20062;-81
2023/03/11 12:12:50;;;;;;;5.30;0.90;;;;;;;;;;6302058;22;20111;-82
2023/03/11 12:15:19;;;;;;;3.28;0.68;;;;;;;;;;6303934;22;20019;-82
2023/03/11 12:17:47;;;;;;;4.68;0.95;;;;;;;;;;6280170;22;20027;-82
2023/03/11 12:20:26;;;;;;;2.90;0.73;;;;;;;;;;6309620;22;20019;-83
2023/03/11 12:22:56;;;;;;;3.65;0.90;;;;;;;;;;6308322;22;20020;-83
2023/03/11 12:25:22;;;;;;;3.00;0.70;;;;;;;;;;6308631;22;20105;-83
2023/03/11 12:27:58;;;;;;;5.75;1.02;;;;;;;;;;6281537;22;20016;-83
2023/03/11 12:30:29;;;;;;;4.85;1.05;;;;;;;;;;6306439;22;20027;-82
2023/03/11 12:33:04;;;;;;;6.82;1.13;;;;;;;;;;6305714;22;20088;-83
2023/03/11 12:35:32;;;;;;;4.13;0.90;;;;;;;;;;6310804;22;20353;-84
2023/03/11 12:38:11;;;;;;;3.38;0.90;;;;;;;;;;6311320;22;20060;-84
2023/03/11 12:40:44;;;;;;;6.25;0.88;;;;;;;;;;6310474;22;20019;-84
2023/03/11 12:43:28;;;;;;;6.90;1.92;;;;;;;;;;6310148;22;20016;-85
2023/03/11 12:45:59;;;;;;;4.50;0.73;;;;;;;;;;6280841;22;20034;-85
2023/03/11 12:48:28;;;;;;;6.30;0.70;;;;;;;;;;6304412;22;20058;-85
2023/03/11 12:50:56;;;;;;;6.65;0.77;;;;;;;;;;6305373;22;20050;-84
2023/03/11 12:53:41;;;;;;;4.63;0.70;;;;;;;;;;6306409;22;20495;-84
2023/03/11 12:56:16;;;;;;;3.70;0.80;;;;;;;;;;6276200;22;20015;-83
2023/03/11 12:59:06;;;;;;;4.43;1.15;;;;;;;;;;6276350;22;20170;-82
2023/03/11 13:01:32;;;;;;;2.58;0.65;;;;;;;;;;6268723;22;20107;-84
2023/03/11 13:04:10;;;;;;;2.13;0.50;;;;;;;;;;6304950;22;20024;-83
2023/03/11 13:06:36;;;;;;;3.15;0.70;;;;;;;;;;6306091;22;20043;-82
2023/03/11 13:09:03;;;;;;;5.97;0.80;;;;;;;;;;6304062;22;20027;-82
2023/03/11 13:11:32;;;;;;;2.78;0.70;;;;;;;;;;6304000;22;20028;-83
2023/03/11 13:14:22;;;;;;;2.97;0.50;;;;;;;;;;6304574;22;20095;-82
2023/03/11 13:16:48;;;;;;;4.18;0.93;;;;;;;;;;6304075;22;20042;-82
2023/03/11 13:19:33;;;;;;;4.28;0.80;;;;;;;;;;6280279;22;20064;-83
2023/03/11 13:22:00;;;;;;;3.97;0.70;;;;;;;;;;6306381;22;20539;-83
2023/03/11 13:24:29;;;;;;;2.72;0.60;;;;;;;;;;6277524;22;20077;-83
2023/03/11 13:27:00;;;;;;;5.45;1.60;;;;;;;;;;6308803;22;20034;-84
2023/03/11 13:29:50;;;;;;;5.25;1.83;;;;;;;;;;6307744;22;20023;-83
2023/03/11 13:32:37;;;;;;;2.58;0.70;;;;;;;;;;6306407;22;20031;-84
2023/03/11 13:35:42;;;;;;;4.13;0.80;;;;;;;;;;6246029;22;20064;-82
2023/03/11 13:38:12;;;;;;;2.90;0.63;;;;;;;;;;6240297;22;20020;-83
2023/03/11 13:40:39;;;;;;;3.42;0.57;;;;;;;;;;6239099;22;20114;-83
2023/03/11 13:43:12;;;;;;;4.03;0.80;;;;;;;;;;6270288;22;20103;-84
2023/03/11 13:45:38;;;;;;;4.53;0.70;;;;;;;;;;6302786;22;20023;-83
2023/03/11 13:48:07;;;;;;;7.90;0.85;;;;;;;;;;6303679;22;20032;-84
2023/03/11 13:50:35;;;;;;;3.33;0.70;;;;;;;;;;6278090;22;20097;-83
2023/03/11 13:53:05;;;;;;;3.42;0.80;;;;;;;;;;6302952;22;20016;-84
2023/03/11 13:55:39;;;;;;;5.07;0.80;;;;;;;;;;6303071;22;20028;-84
2023/03/11 13:58:13;;;;;;;2.63;0.73;;;;;;;;;;6302810;22;20103;-84
2023/03/11 14:00:46;;;;;;;3.03;0.60;;;;;;;;;;6302481;22;20098;-83
2023/03/11 14:03:12;;;;;;;2.50;0.60;;;;;;;;;;6302056;22;20098;-83
2023/03/11 14:05:42;;;;;;;3.33;0.75;;;;;;;;;;6303149;22;20038;-83
2023/03/11 14:08:18;;;;;;;5.13;1.08;;;;;;;;;;6302433;22;20501;-83
2023/03/11 14:10:54;;;;;;;4.68;0.70;;;;;;;;;;6303513;22;20034;-83
2023/03/11 14:13:21;;;;;;;2.35;0.60;;;;;;;;;;6301609;22;20793;-83
2023/03/11 14:15:52;;;;;;;4.55;0.70;;;;;;;;;;6302796;22;20035;-84
2023/03/11 14:18:28;;;;;;;2.03;0.60;;;;;;;;;;6303232;22;20030;-83
2023/03/11 14:20:54;;;;;;;2.88;0.70;;;;;;;;;;6303037;22;20028;-83
2023/03/11 14:23:22;;;;;;;3.47;0.50;;;;;;;;;;6274429;22;20030;-83
2023/03/11 14:25:56;;;;;;;3.40;0.80;;;;;;;;;;6302779;22;20032;-83
2023/03/11 14:28:23;;;;;;;6.05;0.80;;;;;;;;;;6301200;22;20899;-83
2023/03/11 14:30:56;;;;;;;4.05;0.95;;;;;;;;;;6274801;22;20027;-83
2023/03/11 14:33:23;;;;;;;3.83;0.80;;;;;;;;;;6302062;22;20020;-83
2023/03/11 14:35:51;;;;;;;2.97;0.70;;;;;;;;;;6302853;22;20807;-83
2023/03/11 14:38:21;;;;;;;1.70;0.57;;;;;;;;;;6303060;22;20468;-83
2023/03/11 14:40:54;;;;;;;2.75;0.73;;;;;;;;;;6303147;22;20030;-84
2023/03/11 14:43:20;;;;;;;7.82;0.80;;;;;;;;;;6301498;22;20059;-83
2023/03/11 14:45:48;;;;;;;3.25;0.82;;;;;;;;;;6301874;22;20090;-84
2023/03/11 14:48:27;;;;;;;3.20;0.80;;;;;;;;;;6302703;22;20444;-83
2023/03/11 14:50:55;;;;;;;4.85;0.70;;;;;;;;;;6302414;22;20110;-83
2023/03/11 14:53:27;;;;;;;3.92;0.93;;;;;;;;;;6301200;22;20038;-83